Relevés horaires Chievres (Belgique)


Relevés horaires à Chievres - Jeudi 05 Mai 2016
Heure UTC1 Température [°C] Vent [km/h] Hum. [%] Pres.4 [hPa] Visi. [Km] Nébu. [octa] Préc.5 [mm] Cond.
2m. Res. Ros. Dir.2 Vit. Moy. Raf.3
23:00 10.3 10.3 6.1 E 3.7 3.7 3.7 75 1017(-0.4/3h) 20 -- -- --
22:00 11.1 11.1 6.1 ESE 3.7 3.7 5.6 71 1016.7(-0.4/3h) 20 -- -- --
21:00 12.4 12.4 5.9 E 3.7 0.0 0.0 64 1017(-0.5/3h) 20 -- -- --
20:00 13.8 13.8 6.0 E 3.7 7.4 7.4 59 1017.2(-0.6/3h) 20 -- -- --
19:00 15.9 15.9 5.3 ENE 7.4 7.4 9.3 49 1017.2(-1.4/3h) 20 -- -- --
18:00 17.7 17.7 5.4 ENE 5.6 0.0 0.0 44 1017.5(-1.8/3h) 20 -- 0/0h
--
17:00 19.1 19.1 2.7 E 7.4 11.1 14.8 34 1017.7(-2.2/3h) 20 -- -- --
16:00 19.1 19.1 1.1 E 9.3 11.1 16.7 30 1018.5(-2.3/3h) 20 -- -- --
15:00 19.4 19.4 1.3 E 9.3 0.0 0.0 30 1019.2(-2.4/3h) 20 -- -- --
14:00 19.1 19.1 1.5 E 7.4 9.3 16.7 31 1020.2(-2.0/3h) 20 -- -- --
13:00 19.4 19.4 0.8 E 5.6 9.3 14.8 29 1020.8(-1.8/3h) 20 -- -- --
12:00 17.5 17.5 -1.4 E 7.4 0.0 0.0 28 1021.7(-1.5/3h) 20 -- 0/0h
--
11:00 17.3 17.3 0.4 E 7.4 9.3 13.0 32 1022.2(-1.5/3h) 18 -- -- --
10:00 16.3 16.3 1.0 SE 5.6 11.1 16.7 35 1022.7(-1.2/3h) 20 -- -- --
09:00 15.0 14.7 1.2 SE 9.3 0.0 0.0 39 1023.5(-0.9/3h) 20 -- -- --
08:00 13.3 12.7 2.4 SE 9.3 9.3 14.8 48 1023.8(-0.6/3h) 20 -- -- --
07:00 11.3 11.1 1.9 ESE 5.6 7.4 9.3 52 1024.2(-0.6/3h) 20 -- -- --
06:00 8.0 8.0 2.0 ESE 3.7 0.0 0.0 66 1024.7(-0.4/3h) 20 -- 0/0h
--
05:00 5.3 4.2 1.2 ESE 5.6 5.6 5.6 75 1024.9(-0.3/3h) 20 -- -- --
04:00 4.2 4.2 1.3 ESE 3.7 3.7 3.7 81 1025(-0.2/3h) 20 -- -- --
03:00 5.0 5.0 1.7 ESE 3.7 0.0 0.0 79 1025.2(-0.4/3h) 20 -- -- --
02:00 6.4 5.5 1.7 SE 5.6 7.4 9.3 72 1025(-0.8/3h) 20 -- -- --
01:00 7.2 5.9 1.8 SE 7.4 7.4 9.3 68 1025.2(-0.8/3h) 20 -- -- --
00:00 6.8 5.9 2.2 ESE 5.6 0.0 0.0 72 1025.5(-0.7/3h) 20 -- 0/0h
--

1 Coordinated Universal Time. Actuellement il est 18:00 locale et 16:00 UTC.

2 Le vent souffle depuis la direction indiquée vers la direction oposée.

3 Les rafales max. sont disponible 40 min après l'heure du relevé.

4 Pour les stations d'altitude (plus de 600m) le géopotentiel du niveau le plus proche de la pression obligatoire est indiqué.

5 Les stations disposant d'un diffuseur peuvent indiquer "trace". Cela signifie que des précipitations ont touchés le sol mais que la quantité est inférieure à 0.1 mm.

Récapitulatif de la journée
Température [°C] Vent [km/h] Ensoleillement4 [h] Precipitations totale5 [mm] Pression [Hpa]
Min1 Max.2 Moy.3 Max. Min Max.
3.8 20.1 5.2 16.7 0 h 0 min 0 1016.7 1025.5

1 Température minimale relevée entre 18:00 UTC la veille et 18:00 UTC le jour donné.

2 Température maximale relevée entre 06:00 UTC le jour donné et 06:00 UTC le lendemain.

3 Vent moyen de la journée basé sur les relevés horaires.

4 Ensoleillement en heures relevé entre 06:00 UTC la veille et 06:00 UTC le jour donné.

5 Précipitations totales tombées entre 06:00 UTC la jour donné et 06:00 UTC le lendemain.

Graphiques horaires